Rozendaal, Netherlands
Current Conditions -  °F | °C
As of 1:25 AM on Friday 28 Nov 2014 (Local Time) from EHDL Reporting Station
Haze Haze  
Wind Chill: 37°   Ceiling: 600
Heat Index: 43°   Visibility: 2mi
Dew Point: 43°   Wind: 9mph
Humidity: 100%   Direction: 110°ESE
Pressure: 29.74"   Gusts: NA
Location:  52.01°N, 5.96°E
Report Text: EHDL 280025Z AUTO 11008KT 3300 BR FEW005 BKN006 BKN008 06/06 Q1007 YLO
Loading
Personal Weather Stations






























Interactive Weather Map New forecast layout! Learn more

10-Day Weather Forecast

Advertisements
Track Severe Weather on mobile